sensor_id;sensor_type;location;lat;lon;timestamp;temperature;humidity
27781;DHT22;15167;1.318;103.762;2023-03-14T00:02:22;24.60;8.30
27781;DHT22;15167;1.318;103.762;2023-03-14T00:04:48;24.60;2.40
27781;DHT22;15167;1.318;103.762;2023-03-14T00:07:15;24.60;1.00
27781;DHT22;15167;1.318;103.762;2023-03-14T00:09:41;24.60;1.00
27781;DHT22;15167;1.318;103.762;2023-03-14T00:12:07;24.70;1.00
27781;DHT22;15167;1.318;103.762;2023-03-14T00:14:33;24.70;1.00
27781;DHT22;15167;1.318;103.762;2023-03-14T00:16:59;24.70;1.00
27781;DHT22;15167;1.318;103.762;2023-03-14T00:19:25;24.70;1.00
27781;DHT22;15167;1.318;103.762;2023-03-14T00:21:51;24.80;1.00
27781;DHT22;15167;1.318;103.762;2023-03-14T00:24:17;24.80;1.00
27781;DHT22;15167;1.318;103.762;2023-03-14T00:26:43;24.90;1.00
27781;DHT22;15167;1.318;103.762;2023-03-14T00:29:10;24.90;1.00
27781;DHT22;15167;1.318;103.762;2023-03-14T00:31:36;24.90;1.00
27781;DHT22;15167;1.318;103.762;2023-03-14T00:34:02;24.90;1.00
27781;DHT22;15167;1.318;103.762;2023-03-14T00:36:28;25.00;1.00
27781;DHT22;15167;1.318;103.762;2023-03-14T00:38:55;25.10;1.00
27781;DHT22;15167;1.318;103.762;2023-03-14T00:41:22;25.20;99.90
27781;DHT22;15167;1.318;103.762;2023-03-14T00:43:48;25.20;99.90
27781;DHT22;15167;1.318;103.762;2023-03-14T00:46:15;25.20;99.90
27781;DHT22;15167;1.318;103.762;2023-03-14T00:48:41;25.20;99.90
27781;DHT22;15167;1.318;103.762;2023-03-14T00:51:08;25.20;99.90
27781;DHT22;15167;1.318;103.762;2023-03-14T00:53:35;25.30;99.90
27781;DHT22;15167;1.318;103.762;2023-03-14T00:56:05;25.40;99.90
27781;DHT22;15167;1.318;103.762;2023-03-14T00:58:32;25.40;99.90
27781;DHT22;15167;1.318;103.762;2023-03-14T01:00:58;25.40;99.90
27781;DHT22;15167;1.318;103.762;2023-03-14T01:03:24;25.50;99.90
27781;DHT22;15167;1.318;103.762;2023-03-14T01:05:50;25.50;99.90
27781;DHT22;15167;1.318;103.762;2023-03-14T01:08:16;25.60;99.90
27781;DHT22;15167;1.318;103.762;2023-03-14T01:10:42;25.50;99.90
27781;DHT22;15167;1.318;103.762;2023-03-14T01:13:09;25.50;99.90
27781;DHT22;15167;1.318;103.762;2023-03-14T01:15:36;25.60;99.90
27781;DHT22;15167;1.318;103.762;2023-03-14T01:18:02;25.60;99.90
27781;DHT22;15167;1.318;103.762;2023-03-14T01:20:29;25.60;99.90
27781;DHT22;15167;1.318;103.762;2023-03-14T01:22:55;25.80;99.90
27781;DHT22;15167;1.318;103.762;2023-03-14T01:25:21;25.90;99.90
27781;DHT22;15167;1.318;103.762;2023-03-14T01:27:47;26.00;99.90
27781;DHT22;15167;1.318;103.762;2023-03-14T01:30:14;25.90;99.90
27781;DHT22;15167;1.318;103.762;2023-03-14T01:32:40;26.00;99.90
27781;DHT22;15167;1.318;103.762;2023-03-14T01:35:06;26.00;99.90
27781;DHT22;15167;1.318;103.762;2023-03-14T01:37:32;26.20;99.90
27781;DHT22;15167;1.318;103.762;2023-03-14T01:39:59;26.30;99.90
27781;DHT22;15167;1.318;103.762;2023-03-14T01:42:25;26.30;99.90
27781;DHT22;15167;1.318;103.762;2023-03-14T01:44:58;26.20;99.90
27781;DHT22;15167;1.318;103.762;2023-03-14T01:47:25;26.10;99.90
27781;DHT22;15167;1.318;103.762;2023-03-14T01:49:53;26.20;99.90
27781;DHT22;15167;1.318;103.762;2023-03-14T01:54:50;26.20;99.90
27781;DHT22;15167;1.318;103.762;2023-03-14T01:57:30;26.10;99.90
27781;DHT22;15167;1.318;103.762;2023-03-14T02:00:11;26.20;99.90
27781;DHT22;15167;1.318;103.762;2023-03-14T02:02:58;26.30;99.90
27781;DHT22;15167;1.318;103.762;2023-03-14T02:05:43;26.30;99.90
27781;DHT22;15167;1.318;103.762;2023-03-14T02:08:16;26.20;99.90
27781;DHT22;15167;1.318;103.762;2023-03-14T02:10:47;26.20;99.90
27781;DHT22;15167;1.318;103.762;2023-03-14T02:13:14;26.20;99.60
27781;DHT22;15167;1.318;103.762;2023-03-14T02:15:41;26.30;99.90
27781;DHT22;15167;1.318;103.762;2023-03-14T02:18:07;26.40;80.20
27781;DHT22;15167;1.318;103.762;2023-03-14T02:20:34;26.40;90.40
27781;DHT22;15167;1.318;103.762;2023-03-14T02:23:02;26.50;79.10
27781;DHT22;15167;1.318;103.762;2023-03-14T02:25:43;26.60;79.60
27781;DHT22;15167;1.318;103.762;2023-03-14T02:28:11;26.70;40.50
27781;DHT22;15167;1.318;103.762;2023-03-14T02:30:38;26.80;13.60
27781;DHT22;15167;1.318;103.762;2023-03-14T02:33:08;26.90;16.30
27781;DHT22;15167;1.318;103.762;2023-03-14T02:35:37;27.10;5.00
27781;DHT22;15167;1.318;103.762;2023-03-14T02:40:30;27.20;1.00
27781;DHT22;15167;1.318;103.762;2023-03-14T02:42:57;27.10;1.00
27781;DHT22;15167;1.318;103.762;2023-03-14T02:45:28;27.10;1.00
27781;DHT22;15167;1.318;103.762;2023-03-14T02:47:59;27.10;1.00
27781;DHT22;15167;1.318;103.762;2023-03-14T02:50:29;27.30;1.00
27781;DHT22;15167;1.318;103.762;2023-03-14T02:52:58;27.50;1.00
27781;DHT22;15167;1.318;103.762;2023-03-14T02:55:24;27.50;1.00
27781;DHT22;15167;1.318;103.762;2023-03-14T02:57:52;27.50;1.00
27781;DHT22;15167;1.318;103.762;2023-03-14T03:00:19;27.50;1.00
27781;DHT22;15167;1.318;103.762;2023-03-14T03:02:45;27.40;1.00
27781;DHT22;15167;1.318;103.762;2023-03-14T03:05:11;27.40;1.00
27781;DHT22;15167;1.318;103.762;2023-03-14T03:07:37;27.50;1.00
27781;DHT22;15167;1.318;103.762;2023-03-14T03:10:04;27.50;99.90
27781;DHT22;15167;1.318;103.762;2023-03-14T03:12:30;27.60;99.90
27781;DHT22;15167;1.318;103.762;2023-03-14T03:14:56;27.70;99.90
27781;DHT22;15167;1.318;103.762;2023-03-14T03:17:22;27.80;99.90
27781;DHT22;15167;1.318;103.762;2023-03-14T03:19:48;27.80;99.90
27781;DHT22;15167;1.318;103.762;2023-03-14T03:22:14;27.80;99.90
27781;DHT22;15167;1.318;103.762;2023-03-14T03:24:40;27.90;99.90
27781;DHT22;15167;1.318;103.762;2023-03-14T03:27:06;28.00;99.90
27781;DHT22;15167;1.318;103.762;2023-03-14T03:29:33;28.10;99.90
27781;DHT22;15167;1.318;103.762;2023-03-14T03:31:59;28.10;99.90
27781;DHT22;15167;1.318;103.762;2023-03-14T03:34:25;28.00;99.90
27781;DHT22;15167;1.318;103.762;2023-03-14T03:36:55;28.00;99.90
27781;DHT22;15167;1.318;103.762;2023-03-14T03:39:21;28.10;99.90
27781;DHT22;15167;1.318;103.762;2023-03-14T03:41:47;28.10;99.90
27781;DHT22;15167;1.318;103.762;2023-03-14T03:44:13;28.10;99.90
27781;DHT22;15167;1.318;103.762;2023-03-14T03:46:39;28.00;99.90
27781;DHT22;15167;1.318;103.762;2023-03-14T03:49:05;27.90;99.90
27781;DHT22;15167;1.318;103.762;2023-03-14T03:51:32;27.80;99.90
27781;DHT22;15167;1.318;103.762;2023-03-14T03:53:58;27.90;99.90
27781;DHT22;15167;1.318;103.762;2023-03-14T03:56:24;28.10;99.90
27781;DHT22;15167;1.318;103.762;2023-03-14T03:58:50;28.30;99.90
27781;DHT22;15167;1.318;103.762;2023-03-14T04:01:16;28.50;99.90
27781;DHT22;15167;1.318;103.762;2023-03-14T04:03:42;28.60;99.90
27781;DHT22;15167;1.318;103.762;2023-03-14T04:06:09;28.60;99.90
27781;DHT22;15167;1.318;103.762;2023-03-14T04:08:36;28.70;99.90
27781;DHT22;15167;1.318;103.762;2023-03-14T04:11:02;28.80;99.90
27781;DHT22;15167;1.318;103.762;2023-03-14T04:13:29;28.80;99.90
27781;DHT22;15167;1.318;103.762;2023-03-14T04:15:55;28.80;99.90
27781;DHT22;15167;1.318;103.762;2023-03-14T04:18:22;28.70;99.90
27781;DHT22;15167;1.318;103.762;2023-03-14T04:20:50;28.50;99.90
27781;DHT22;15167;1.318;103.762;2023-03-14T04:23:17;28.60;99.90
27781;DHT22;15167;1.318;103.762;2023-03-14T04:25:43;28.70;99.90
27781;DHT22;15167;1.318;103.762;2023-03-14T04:28:09;28.70;99.90
27781;DHT22;15167;1.318;103.762;2023-03-14T04:30:35;28.80;99.90
27781;DHT22;15167;1.318;103.762;2023-03-14T04:33:01;28.90;84.30
27781;DHT22;15167;1.318;103.762;2023-03-14T04:35:29;29.00;87.00
27781;DHT22;15167;1.318;103.762;2023-03-14T04:37:55;29.30;33.00
27781;DHT22;15167;1.318;103.762;2023-03-14T04:40:21;29.40;1.00
27781;DHT22;15167;1.318;103.762;2023-03-14T04:42:48;29.50;1.00
27781;DHT22;15167;1.318;103.762;2023-03-14T04:45:14;29.70;1.00
27781;DHT22;15167;1.318;103.762;2023-03-14T04:47:40;29.70;99.90
27781;DHT22;15167;1.318;103.762;2023-03-14T04:50:06;29.80;99.90
27781;DHT22;15167;1.318;103.762;2023-03-14T04:52:33;29.90;99.90
27781;DHT22;15167;1.318;103.762;2023-03-14T04:54:59;29.70;99.90
27781;DHT22;15167;1.318;103.762;2023-03-14T04:57:25;29.60;1.00
27781;DHT22;15167;1.318;103.762;2023-03-14T04:59:51;29.50;1.00
27781;DHT22;15167;1.318;103.762;2023-03-14T05:02:17;29.60;1.00
27781;DHT22;15167;1.318;103.762;2023-03-14T05:04:43;29.30;1.00
27781;DHT22;15167;1.318;103.762;2023-03-14T05:07:09;29.10;1.00
27781;DHT22;15167;1.318;103.762;2023-03-14T05:09:35;28.80;1.00
27781;DHT22;15167;1.318;103.762;2023-03-14T05:12:01;28.40;25.90
27781;DHT22;15167;1.318;103.762;2023-03-14T05:14:27;28.20;99.90
27781;DHT22;15167;1.318;103.762;2023-03-14T05:16:53;28.10;99.90
27781;DHT22;15167;1.318;103.762;2023-03-14T05:19:20;28.20;99.90
27781;DHT22;15167;1.318;103.762;2023-03-14T05:21:46;28.20;99.90
27781;DHT22;15167;1.318;103.762;2023-03-14T05:24:12;28.20;99.90
27781;DHT22;15167;1.318;103.762;2023-03-14T05:26:38;28.40;99.90
27781;DHT22;15167;1.318;103.762;2023-03-14T05:29:04;28.50;99.90
27781;DHT22;15167;1.318;103.762;2023-03-14T05:31:30;28.60;99.90
27781;DHT22;15167;1.318;103.762;2023-03-14T05:33:56;28.90;93.00
27781;DHT22;15167;1.318;103.762;2023-03-14T05:36:22;28.80;93.60
27781;DHT22;15167;1.318;103.762;2023-03-14T05:38:48;29.20;1.00
27781;DHT22;15167;1.318;103.762;2023-03-14T05:41:14;29.10;99.90
27781;DHT22;15167;1.318;103.762;2023-03-14T05:43:40;29.10;1.00
27781;DHT22;15167;1.318;103.762;2023-03-14T05:46:06;29.10;99.90
27781;DHT22;15167;1.318;103.762;2023-03-14T05:48:33;28.90;1.00
27781;DHT22;15167;1.318;103.762;2023-03-14T05:50:59;28.60;1.00
27781;DHT22;15167;1.318;103.762;2023-03-14T05:53:25;28.60;19.10
27781;DHT22;15167;1.318;103.762;2023-03-14T05:55:52;28.60;99.90
27781;DHT22;15167;1.318;103.762;2023-03-14T05:58:18;28.60;99.90
27781;DHT22;15167;1.318;103.762;2023-03-14T06:00:44;28.60;99.90
27781;DHT22;15167;1.318;103.762;2023-03-14T06:03:11;28.80;99.90
27781;DHT22;15167;1.318;103.762;2023-03-14T06:05:37;29.00;90.90
27781;DHT22;15167;1.318;103.762;2023-03-14T06:08:03;29.00;18.80
27781;DHT22;15167;1.318;103.762;2023-03-14T06:10:29;28.80;90.40
27781;DHT22;15167;1.318;103.762;2023-03-14T06:12:55;28.70;99.90
27781;DHT22;15167;1.318;103.762;2023-03-14T06:15:21;28.70;99.90
27781;DHT22;15167;1.318;103.762;2023-03-14T06:17:48;28.50;99.90
27781;DHT22;15167;1.318;103.762;2023-03-14T06:20:14;28.60;99.90
27781;DHT22;15167;1.318;103.762;2023-03-14T06:22:40;28.40;99.90
27781;DHT22;15167;1.318;103.762;2023-03-14T06:25:07;28.00;99.90
27781;DHT22;15167;1.318;103.762;2023-03-14T06:27:34;27.70;1.00
27781;DHT22;15167;1.318;103.762;2023-03-14T06:30:00;27.60;1.00
27781;DHT22;15167;1.318;103.762;2023-03-14T06:32:26;27.50;1.00
27781;DHT22;15167;1.318;103.762;2023-03-14T06:34:52;27.50;1.00
27781;DHT22;15167;1.318;103.762;2023-03-14T06:37:18;27.40;1.00
27781;DHT22;15167;1.318;103.762;2023-03-14T06:39:45;27.40;1.00
27781;DHT22;15167;1.318;103.762;2023-03-14T06:42:11;27.40;1.00
27781;DHT22;15167;1.318;103.762;2023-03-14T06:44:37;27.60;99.90
27781;DHT22;15167;1.318;103.762;2023-03-14T06:47:03;27.80;1.00
27781;DHT22;15167;1.318;103.762;2023-03-14T06:49:29;28.00;99.90
27781;DHT22;15167;1.318;103.762;2023-03-14T06:51:55;28.20;99.90
27781;DHT22;15167;1.318;103.762;2023-03-14T06:54:21;28.40;99.90
27781;DHT22;15167;1.318;103.762;2023-03-14T06:56:48;28.50;99.90
27781;DHT22;15167;1.318;103.762;2023-03-14T06:59:14;28.60;99.90
27781;DHT22;15167;1.318;103.762;2023-03-14T07:01:40;28.90;99.90
27781;DHT22;15167;1.318;103.762;2023-03-14T07:04:06;29.10;99.90
27781;DHT22;15167;1.318;103.762;2023-03-14T07:06:32;29.40;99.90
27781;DHT22;15167;1.318;103.762;2023-03-14T07:08:59;29.60;99.90
27781;DHT22;15167;1.318;103.762;2023-03-14T07:11:25;29.90;99.90
27781;DHT22;15167;1.318;103.762;2023-03-14T07:13:51;30.30;36.10
27781;DHT22;15167;1.318;103.762;2023-03-14T07:16:18;30.50;1.00
27781;DHT22;15167;1.318;103.762;2023-03-14T07:18:44;30.60;99.90
27781;DHT22;15167;1.318;103.762;2023-03-14T07:21:10;30.70;99.90
27781;DHT22;15167;1.318;103.762;2023-03-14T07:23:36;30.70;99.90
27781;DHT22;15167;1.318;103.762;2023-03-14T07:26:02;30.80;99.90
27781;DHT22;15167;1.318;103.762;2023-03-14T07:28:29;30.60;99.90
27781;DHT22;15167;1.318;103.762;2023-03-14T07:30:55;30.30;99.90
27781;DHT22;15167;1.318;103.762;2023-03-14T07:33:21;30.30;99.90
27781;DHT22;15167;1.318;103.762;2023-03-14T07:35:48;30.50;99.90
27781;DHT22;15167;1.318;103.762;2023-03-14T07:38:14;30.50;99.90
27781;DHT22;15167;1.318;103.762;2023-03-14T07:40:40;30.30;99.90
27781;DHT22;15167;1.318;103.762;2023-03-14T07:43:06;30.60;99.90
27781;DHT22;15167;1.318;103.762;2023-03-14T07:45:33;30.50;80.70
27781;DHT22;15167;1.318;103.762;2023-03-14T07:47:59;30.20;99.90
27781;DHT22;15167;1.318;103.762;2023-03-14T07:50:26;30.30;99.90
27781;DHT22;15167;1.318;103.762;2023-03-14T07:52:52;30.30;88.30
27781;DHT22;15167;1.318;103.762;2023-03-14T07:55:18;30.10;99.90
27781;DHT22;15167;1.318;103.762;2023-03-14T07:57:44;30.00;99.90
27781;DHT22;15167;1.318;103.762;2023-03-14T08:00:10;30.10;99.90
27781;DHT22;15167;1.318;103.762;2023-03-14T08:02:36;30.20;99.90
27781;DHT22;15167;1.318;103.762;2023-03-14T08:05:03;30.30;99.90
27781;DHT22;15167;1.318;103.762;2023-03-14T08:07:29;30.30;90.60
27781;DHT22;15167;1.318;103.762;2023-03-14T08:09:55;30.10;99.90
27781;DHT22;15167;1.318;103.762;2023-03-14T08:12:21;30.00;99.90
27781;DHT22;15167;1.318;103.762;2023-03-14T08:14:48;29.80;1.00
27781;DHT22;15167;1.318;103.762;2023-03-14T08:17:14;29.80;1.00
27781;DHT22;15167;1.318;103.762;2023-03-14T08:19:43;29.70;1.00
27781;DHT22;15167;1.318;103.762;2023-03-14T08:22:09;29.50;1.00
27781;DHT22;15167;1.318;103.762;2023-03-14T08:24:35;29.30;1.00
27781;DHT22;15167;1.318;103.762;2023-03-14T08:27:01;29.10;21.20
27781;DHT22;15167;1.318;103.762;2023-03-14T08:29:27;29.10;27.90
27781;DHT22;15167;1.318;103.762;2023-03-14T08:31:54;28.90;70.60
27781;DHT22;15167;1.318;103.762;2023-03-14T08:34:20;28.80;99.90
27781;DHT22;15167;1.318;103.762;2023-03-14T08:36:46;28.70;99.90
27781;DHT22;15167;1.318;103.762;2023-03-14T08:39:12;28.70;99.90
27781;DHT22;15167;1.318;103.762;2023-03-14T08:41:39;28.60;99.90
27781;DHT22;15167;1.318;103.762;2023-03-14T08:44:10;28.60;99.90
27781;DHT22;15167;1.318;103.762;2023-03-14T08:46:37;28.40;99.90
27781;DHT22;15167;1.318;103.762;2023-03-14T08:49:03;28.30;99.90
27781;DHT22;15167;1.318;103.762;2023-03-14T08:51:29;28.20;99.90
27781;DHT22;15167;1.318;103.762;2023-03-14T08:53:55;26.80;1.00
27781;DHT22;15167;1.318;103.762;2023-03-14T08:56:21;25.20;99.90
27781;DHT22;15167;1.318;103.762;2023-03-14T08:58:47;24.90;1.00
27781;DHT22;15167;1.318;103.762;2023-03-14T09:01:13;25.00;1.00
27781;DHT22;15167;1.318;103.762;2023-03-14T09:03:40;25.00;1.00
27781;DHT22;15167;1.318;103.762;2023-03-14T09:06:07;24.90;1.00
27781;DHT22;15167;1.318;103.762;2023-03-14T09:08:33;25.10;1.00
27781;DHT22;15167;1.318;103.762;2023-03-14T09:11:00;25.20;1.00
27781;DHT22;15167;1.318;103.762;2023-03-14T09:13:26;25.40;99.90
27781;DHT22;15167;1.318;103.762;2023-03-14T09:15:53;25.50;99.90
27781;DHT22;15167;1.318;103.762;2023-03-14T09:18:19;25.60;99.90
27781;DHT22;15167;1.318;103.762;2023-03-14T09:20:45;25.70;99.90
27781;DHT22;15167;1.318;103.762;2023-03-14T09:23:11;25.70;99.90
27781;DHT22;15167;1.318;103.762;2023-03-14T09:25:38;25.80;99.90
27781;DHT22;15167;1.318;103.762;2023-03-14T09:28:04;25.90;99.90
27781;DHT22;15167;1.318;103.762;2023-03-14T09:30:30;26.00;99.90
27781;DHT22;15167;1.318;103.762;2023-03-14T09:32:56;26.00;99.90
27781;DHT22;15167;1.318;103.762;2023-03-14T09:35:23;25.90;99.90
27781;DHT22;15167;1.318;103.762;2023-03-14T09:37:49;26.00;99.90
27781;DHT22;15167;1.318;103.762;2023-03-14T09:40:15;26.20;99.90
27781;DHT22;15167;1.318;103.762;2023-03-14T09:42:42;26.40;99.90
27781;DHT22;15167;1.318;103.762;2023-03-14T09:45:50;26.40;99.90
27781;DHT22;15167;1.318;103.762;2023-03-14T09:47:58;26.40;90.30
27781;DHT22;15167;1.318;103.762;2023-03-14T09:50:25;26.40;23.80
27781;DHT22;15167;1.318;103.762;2023-03-14T09:52:54;26.40;29.10
27781;DHT22;15167;1.318;103.762;2023-03-14T09:55:22;26.50;15.20
27781;DHT22;15167;1.318;103.762;2023-03-14T09:57:49;26.50;1.00
27781;DHT22;15167;1.318;103.762;2023-03-14T10:02:43;26.80;1.00
27781;DHT22;15167;1.318;103.762;2023-03-14T10:05:15;26.90;1.00
27781;DHT22;15167;1.318;103.762;2023-03-14T10:07:42;27.00;1.00
27781;DHT22;15167;1.318;103.762;2023-03-14T10:10:13;27.00;1.00
27781;DHT22;15167;1.318;103.762;2023-03-14T10:12:44;27.10;1.00
27781;DHT22;15167;1.318;103.762;2023-03-14T10:15:11;27.20;1.00
27781;DHT22;15167;1.318;103.762;2023-03-14T10:17:43;27.20;1.00
27781;DHT22;15167;1.318;103.762;2023-03-14T10:20:29;27.30;1.00
27781;DHT22;15167;1.318;103.762;2023-03-14T10:23:05;27.20;1.00
27781;DHT22;15167;1.318;103.762;2023-03-14T10:25:33;27.10;1.00
27781;DHT22;15167;1.318;103.762;2023-03-14T10:28:00;27.10;1.00
27781;DHT22;15167;1.318;103.762;2023-03-14T10:30:29;27.10;1.00
27781;DHT22;15167;1.318;103.762;2023-03-14T10:32:56;27.10;1.00
27781;DHT22;15167;1.318;103.762;2023-03-14T10:35:22;27.00;1.00
27781;DHT22;15167;1.318;103.762;2023-03-14T10:37:53;27.00;1.00
27781;DHT22;15167;1.318;103.762;2023-03-14T10:40:24;27.00;1.00
27781;DHT22;15167;1.318;103.762;2023-03-14T10:42:51;27.00;1.00
27781;DHT22;15167;1.318;103.762;2023-03-14T10:48:23;27.10;1.00
27781;DHT22;15167;1.318;103.762;2023-03-14T10:50:56;27.00;1.00
27781;DHT22;15167;1.318;103.762;2023-03-14T10:53:23;27.10;1.00
27781;DHT22;15167;1.318;103.762;2023-03-14T10:55:49;27.00;1.00
27781;DHT22;15167;1.318;103.762;2023-03-14T11:00:46;26.90;1.00
27781;DHT22;15167;1.318;103.762;2023-03-14T11:03:13;26.90;1.00
27781;DHT22;15167;1.318;103.762;2023-03-14T11:05:49;26.80;1.00
27781;DHT22;15167;1.318;103.762;2023-03-14T11:08:20;26.80;1.00
27781;DHT22;15167;1.318;103.762;2023-03-14T11:10:50;26.70;1.00
27781;DHT22;15167;1.318;103.762;2023-03-14T11:13:22;26.70;1.00
27781;DHT22;15167;1.318;103.762;2023-03-14T11:20:53;26.50;1.00
27781;DHT22;15167;1.318;103.762;2023-03-14T11:23:30;26.50;1.00
27781;DHT22;15167;1.318;103.762;2023-03-14T11:28:46;26.50;1.00
27781;DHT22;15167;1.318;103.762;2023-03-14T11:36:37;26.40;1.00
27781;DHT22;15167;1.318;103.762;2023-03-14T11:39:07;26.30;4.50
27781;DHT22;15167;1.318;103.762;2023-03-14T11:41:39;26.30;8.70
27781;DHT22;15167;1.318;103.762;2023-03-14T11:44:19;26.30;11.90
27781;DHT22;15167;1.318;103.762;2023-03-14T11:49:30;26.20;23.00
27781;DHT22;15167;1.318;103.762;2023-03-14T11:57:40;26.30;43.90
27781;DHT22;15167;1.318;103.762;2023-03-14T12:00:14;26.20;46.40
27781;DHT22;15167;1.318;103.762;2023-03-14T12:10:30;26.20;72.00
27781;DHT22;15167;1.318;103.762;2023-03-14T12:13:02;26.10;77.50
27781;DHT22;15167;1.318;103.762;2023-03-14T12:15:28;26.00;86.60
27781;DHT22;15167;1.318;103.762;2023-03-14T12:17:55;26.00;91.00
27781;DHT22;15167;1.318;103.762;2023-03-14T12:20:22;26.00;91.80
27781;DHT22;15167;1.318;103.762;2023-03-14T12:25:15;26.00;95.00
27781;DHT22;15167;1.318;103.762;2023-03-14T12:27:44;25.90;99.60
27781;DHT22;15167;1.318;103.762;2023-03-14T12:30:44;25.90;99.70
27781;DHT22;15167;1.318;103.762;2023-03-14T12:35:45;25.90;97.10
27781;DHT22;15167;1.318;103.762;2023-03-14T12:40:54;25.90;92.50
27781;DHT22;15167;1.318;103.762;2023-03-14T12:43:27;25.80;97.40
27781;DHT22;15167;1.318;103.762;2023-03-14T12:48:49;25.80;99.90
27781;DHT22;15167;1.318;103.762;2023-03-14T12:51:17;25.80;99.90
27781;DHT22;15167;1.318;103.762;2023-03-14T12:54:03;25.70;99.90
27781;DHT22;15167;1.318;103.762;2023-03-14T13:01:31;25.70;99.90
27781;DHT22;15167;1.318;103.762;2023-03-14T13:04:02;25.70;99.90
27781;DHT22;15167;1.318;103.762;2023-03-14T13:11:56;25.70;99.90
27781;DHT22;15167;1.318;103.762;2023-03-14T13:14:27;25.70;99.90
27781;DHT22;15167;1.318;103.762;2023-03-14T13:16:54;25.70;99.90
27781;DHT22;15167;1.318;103.762;2023-03-14T13:19:29;25.70;99.90
27781;DHT22;15167;1.318;103.762;2023-03-14T13:22:03;25.70;99.90
27781;DHT22;15167;1.318;103.762;2023-03-14T13:24:32;25.70;99.90
27781;DHT22;15167;1.318;103.762;2023-03-14T13:26:59;25.60;99.90
27781;DHT22;15167;1.318;103.762;2023-03-14T13:29:29;25.60;99.90
27781;DHT22;15167;1.318;103.762;2023-03-14T13:31:59;25.60;99.90
27781;DHT22;15167;1.318;103.762;2023-03-14T13:34:29;25.60;99.90
27781;DHT22;15167;1.318;103.762;2023-03-14T13:36:56;25.50;99.90
27781;DHT22;15167;1.318;103.762;2023-03-14T13:39:23;25.50;99.90
27781;DHT22;15167;1.318;103.762;2023-03-14T13:41:54;25.50;99.90
27781;DHT22;15167;1.318;103.762;2023-03-14T13:44:37;25.50;99.90
27781;DHT22;15167;1.318;103.762;2023-03-14T13:47:05;25.50;99.90
27781;DHT22;15167;1.318;103.762;2023-03-14T13:49:32;25.50;99.90
27781;DHT22;15167;1.318;103.762;2023-03-14T13:52:01;25.50;99.90
27781;DHT22;15167;1.318;103.762;2023-03-14T13:54:28;25.50;99.90
27781;DHT22;15167;1.318;103.762;2023-03-14T13:57:04;25.50;99.90
27781;DHT22;15167;1.318;103.762;2023-03-14T13:59:31;25.50;99.90
27781;DHT22;15167;1.318;103.762;2023-03-14T14:02:02;25.50;99.90
27781;DHT22;15167;1.318;103.762;2023-03-14T14:04:30;25.50;99.90
27781;DHT22;15167;1.318;103.762;2023-03-14T14:06:59;25.50;99.90
27781;DHT22;15167;1.318;103.762;2023-03-14T14:09:27;25.50;99.90
27781;DHT22;15167;1.318;103.762;2023-03-14T14:14:36;25.40;99.90
27781;DHT22;15167;1.318;103.762;2023-03-14T14:17:08;25.50;99.90
27781;DHT22;15167;1.318;103.762;2023-03-14T14:19:35;25.40;99.90
27781;DHT22;15167;1.318;103.762;2023-03-14T14:22:02;25.40;99.90
27781;DHT22;15167;1.318;103.762;2023-03-14T14:24:31;25.30;99.90
27781;DHT22;15167;1.318;103.762;2023-03-14T14:27:01;25.30;99.90
27781;DHT22;15167;1.318;103.762;2023-03-14T14:29:32;25.30;99.90
27781;DHT22;15167;1.318;103.762;2023-03-14T14:39:46;25.20;99.90
27781;DHT22;15167;1.318;103.762;2023-03-14T14:42:16;25.20;99.90
27781;DHT22;15167;1.318;103.762;2023-03-14T14:44:44;25.20;99.90
27781;DHT22;15167;1.318;103.762;2023-03-14T14:47:14;25.20;99.90
27781;DHT22;15167;1.318;103.762;2023-03-14T14:49:41;25.10;99.90
27781;DHT22;15167;1.318;103.762;2023-03-14T14:54:44;25.10;99.90
27781;DHT22;15167;1.318;103.762;2023-03-14T14:57:22;25.10;99.90
27781;DHT22;15167;1.318;103.762;2023-03-14T14:59:49;25.10;99.90
27781;DHT22;15167;1.318;103.762;2023-03-14T15:05:01;25.00;99.90
27781;DHT22;15167;1.318;103.762;2023-03-14T15:07:27;25.00;99.90
27781;DHT22;15167;1.318;103.762;2023-03-14T15:09:53;25.00;99.90
27781;DHT22;15167;1.318;103.762;2023-03-14T15:12:19;25.00;99.90
27781;DHT22;15167;1.318;103.762;2023-03-14T15:14:46;25.00;99.90
27781;DHT22;15167;1.318;103.762;2023-03-14T15:17:12;25.00;99.90
27781;DHT22;15167;1.318;103.762;2023-03-14T15:19:38;25.00;99.90
27781;DHT22;15167;1.318;103.762;2023-03-14T15:22:07;25.00;99.90
27781;DHT22;15167;1.318;103.762;2023-03-14T15:24:34;25.00;99.90
27781;DHT22;15167;1.318;103.762;2023-03-14T15:27:01;25.00;99.90
27781;DHT22;15167;1.318;103.762;2023-03-14T15:29:27;25.00;99.90
27781;DHT22;15167;1.318;103.762;2023-03-14T15:31:53;25.00;99.90
27781;DHT22;15167;1.318;103.762;2023-03-14T15:34:19;25.00;99.90
27781;DHT22;15167;1.318;103.762;2023-03-14T15:36:45;24.90;99.90
27781;DHT22;15167;1.318;103.762;2023-03-14T15:39:11;24.90;99.90
27781;DHT22;15167;1.318;103.762;2023-03-14T15:41:37;24.90;99.90
27781;DHT22;15167;1.318;103.762;2023-03-14T15:44:03;24.90;99.90
27781;DHT22;15167;1.318;103.762;2023-03-14T15:46:30;24.90;99.90
27781;DHT22;15167;1.318;103.762;2023-03-14T15:48:56;24.90;99.90
27781;DHT22;15167;1.318;103.762;2023-03-14T15:51:22;24.90;99.90
27781;DHT22;15167;1.318;103.762;2023-03-14T15:53:48;24.80;99.90
27781;DHT22;15167;1.318;103.762;2023-03-14T15:56:15;24.80;99.90
27781;DHT22;15167;1.318;103.762;2023-03-14T15:58:42;24.80;99.90
27781;DHT22;15167;1.318;103.762;2023-03-14T16:01:12;24.80;99.90
27781;DHT22;15167;1.318;103.762;2023-03-14T16:03:38;24.80;99.90
27781;DHT22;15167;1.318;103.762;2023-03-14T16:06:05;24.70;99.90
27781;DHT22;15167;1.318;103.762;2023-03-14T16:08:32;24.80;99.90
27781;DHT22;15167;1.318;103.762;2023-03-14T16:10:58;24.80;99.90
27781;DHT22;15167;1.318;103.762;2023-03-14T16:13:25;24.80;99.90
27781;DHT22;15167;1.318;103.762;2023-03-14T16:15:58;24.80;99.90
27781;DHT22;15167;1.318;103.762;2023-03-14T16:18:24;24.70;99.90
27781;DHT22;15167;1.318;103.762;2023-03-14T16:20:55;24.70;99.90
27781;DHT22;15167;1.318;103.762;2023-03-14T16:23:22;24.70;99.90
27781;DHT22;15167;1.318;103.762;2023-03-14T16:25:48;24.70;99.90
27781;DHT22;15167;1.318;103.762;2023-03-14T16:28:15;24.60;99.90
27781;DHT22;15167;1.318;103.762;2023-03-14T16:30:41;24.60;1.00
27781;DHT22;15167;1.318;103.762;2023-03-14T16:33:07;24.60;1.00
27781;DHT22;15167;1.318;103.762;2023-03-14T16:35:35;24.60;1.00
27781;DHT22;15167;1.318;103.762;2023-03-14T16:38:01;24.60;1.00
27781;DHT22;15167;1.318;103.762;2023-03-14T16:40:27;24.60;1.00
27781;DHT22;15167;1.318;103.762;2023-03-14T16:42:54;24.60;1.00